createdAt,value
2022-09-07T00:00:17.855Z,85.29
2022-09-07T00:01:22.756Z,86.00
2022-09-07T00:02:25.941Z,86.13
2022-09-07T00:04:02.536Z,86.17
2022-09-07T00:05:06.127Z,85.95
2022-09-07T00:06:09.354Z,86.64
2022-09-07T00:07:44.232Z,87.57
2022-09-07T00:08:47.547Z,87.63
2022-09-07T00:09:50.589Z,87.90
2022-09-07T00:11:25.924Z,88.18
2022-09-07T00:12:29.027Z,88.06
2022-09-07T00:13:32.170Z,88.06
2022-09-07T00:15:07.003Z,88.31
2022-09-07T00:16:10.284Z,88.87
2022-09-07T00:17:13.995Z,88.96
2022-09-07T00:18:52.111Z,88.79
2022-09-07T00:19:55.174Z,89.10
2022-09-07T00:20:58.083Z,89.55
2022-09-07T00:22:32.708Z,89.84
2022-09-07T00:23:35.801Z,89.80
2022-09-07T00:24:38.789Z,89.87
2022-09-07T00:26:18.104Z,90.17
2022-09-07T00:27:21.183Z,90.84
2022-09-07T00:28:24.099Z,90.67
2022-09-07T00:29:59.636Z,90.43
2022-09-07T00:31:03.107Z,90.55
2022-09-07T00:32:06.760Z,90.49
2022-09-07T00:33:41.905Z,89.78
2022-09-07T00:34:44.829Z,90.30
2022-09-07T00:35:47.801Z,90.29
2022-09-07T00:37:22.868Z,90.04
2022-09-07T00:38:26.033Z,90.24
2022-09-07T00:39:29.422Z,90.81
2022-09-07T00:41:04.695Z,89.94
2022-09-07T00:42:07.500Z,90.29
2022-09-07T00:43:10.652Z,89.80
2022-09-07T00:44:45.522Z,90.22
2022-09-07T00:45:48.599Z,90.20
2022-09-07T00:46:51.994Z,89.61
2022-09-07T00:48:27.320Z,90.18
2022-09-07T00:49:30.272Z,90.11
2022-09-07T00:50:33.398Z,90.35
2022-09-07T00:52:08.257Z,90.59
2022-09-07T00:53:11.262Z,90.10
2022-09-07T00:54:14.524Z,89.97
2022-09-07T00:55:49.368Z,88.92
2022-09-07T00:56:52.586Z,89.20
2022-09-07T00:57:55.626Z,89.52
2022-09-07T00:59:31.039Z,89.61
2022-09-07T01:00:17.559Z,88.72
2022-09-07T01:01:20.636Z,89.11
2022-09-07T01:02:24.664Z,89.08
2022-09-07T01:04:00.841Z,89.60
2022-09-07T01:05:08.857Z,89.73
2022-09-07T01:06:12.656Z,89.80
2022-09-07T01:07:48.120Z,89.51
2022-09-07T01:08:51.260Z,89.33
2022-09-07T01:09:54.554Z,89.55
2022-09-07T01:11:29.627Z,89.39
2022-09-07T01:12:32.710Z,89.35
2022-09-07T01:13:36.143Z,89.50
2022-09-07T01:15:11.353Z,88.54
2022-09-07T01:16:14.767Z,88.61
2022-09-07T01:17:18.506Z,88.95
2022-09-07T01:18:53.904Z,88.70
2022-09-07T01:19:57.026Z,88.85
2022-09-07T01:21:00.390Z,88.57
2022-09-07T01:22:35.842Z,88.46
2022-09-07T01:23:39.046Z,88.73
2022-09-07T01:24:42.225Z,88.64
2022-09-07T01:26:17.481Z,88.70
2022-09-07T01:27:20.703Z,88.33
2022-09-07T01:28:24.066Z,88.56
2022-09-07T01:29:59.773Z,87.47
2022-09-07T01:31:03.339Z,87.55
2022-09-07T01:32:06.830Z,87.78
2022-09-07T01:33:42.209Z,87.98
2022-09-07T01:34:45.439Z,87.96
2022-09-07T01:35:48.759Z,87.98
2022-09-07T01:37:24.049Z,87.13
2022-09-07T01:38:27.540Z,87.34
2022-09-07T01:39:30.772Z,87.72
2022-09-07T01:41:06.568Z,87.60
2022-09-07T01:42:09.719Z,87.79
2022-09-07T01:43:12.844Z,87.90
2022-09-07T01:44:48.112Z,87.84
2022-09-07T01:45:51.461Z,88.20
2022-09-07T01:46:55.247Z,87.78
2022-09-07T01:48:30.727Z,87.90
2022-09-07T01:49:34.227Z,87.95
2022-09-07T01:50:37.598Z,87.79
2022-09-07T01:52:13.171Z,87.65
2022-09-07T01:53:16.521Z,87.83
2022-09-07T01:54:19.643Z,87.93
2022-09-07T01:55:55.033Z,88.03
2022-09-07T01:56:58.602Z,87.73
2022-09-07T01:58:02.062Z,87.68
2022-09-07T01:59:37.475Z,87.31
2022-09-07T02:00:18.119Z,87.31
2022-09-07T02:01:21.265Z,87.44
2022-09-07T02:02:24.856Z,87.80
2022-09-07T02:04:00.368Z,87.62
2022-09-07T02:05:03.235Z,87.74
2022-09-07T02:06:06.405Z,87.76
2022-09-07T02:07:41.435Z,87.93
2022-09-07T02:08:44.321Z,88.07
2022-09-07T02:09:47.345Z,87.86
2022-09-07T02:11:22.461Z,88.00
2022-09-07T02:12:25.230Z,88.30
2022-09-07T02:13:28.386Z,88.41
2022-09-07T02:15:03.224Z,88.24
2022-09-07T02:16:06.364Z,88.11
2022-09-07T02:17:09.751Z,88.27
2022-09-07T02:18:44.797Z,87.68
2022-09-07T02:19:47.638Z,87.79
2022-09-07T02:20:50.568Z,87.76
2022-09-07T02:22:25.490Z,87.53
2022-09-07T02:23:28.614Z,87.73
2022-09-07T02:24:31.602Z,87.79
2022-09-07T02:26:06.705Z,87.66
2022-09-07T02:27:09.434Z,87.73
2022-09-07T02:28:12.337Z,87.85
2022-09-07T02:29:47.352Z,87.89
2022-09-07T02:30:50.327Z,87.83
2022-09-07T02:31:53.757Z,87.96
2022-09-07T02:33:28.561Z,88.36
2022-09-07T02:34:31.544Z,87.93
2022-09-07T02:35:34.516Z,87.96
2022-09-07T02:37:09.316Z,88.12
2022-09-07T02:38:12.226Z,88.65
2022-09-07T02:39:15.284Z,87.91
2022-09-07T02:40:50.362Z,88.37
2022-09-07T02:41:53.263Z,88.51
2022-09-07T02:42:56.343Z,88.42
2022-09-07T02:44:31.225Z,88.22
2022-09-07T02:45:34.370Z,88.22
2022-09-07T02:46:37.710Z,88.33
2022-09-07T02:48:12.807Z,88.66
2022-09-07T02:49:16.161Z,88.78
2022-09-07T02:50:19.131Z,88.64
2022-09-07T02:51:54.069Z,88.67
2022-09-07T02:52:56.848Z,88.57
2022-09-07T02:53:59.763Z,88.53
2022-09-07T02:55:34.668Z,88.56
2022-09-07T02:56:37.659Z,88.54
2022-09-07T02:57:40.673Z,88.62
2022-09-07T02:59:15.426Z,88.20
2022-09-07T03:00:17.946Z,88.23
2022-09-07T03:01:21.090Z,88.49
2022-09-07T03:02:24.711Z,88.75
2022-09-07T03:04:00.127Z,88.89
2022-09-07T03:05:03.223Z,89.21
2022-09-07T03:06:06.074Z,89.43
2022-09-07T03:07:44.225Z,89.44
2022-09-07T03:08:47.560Z,89.17
2022-09-07T03:09:50.472Z,89.21
2022-09-07T03:11:25.602Z,89.61
2022-09-07T03:12:28.445Z,89.50
2022-09-07T03:13:31.604Z,89.44
2022-09-07T03:15:06.468Z,89.49
2022-09-07T03:16:09.753Z,89.45
2022-09-07T03:17:12.832Z,89.27
2022-09-07T03:18:47.685Z,88.82
2022-09-07T03:19:50.701Z,88.76
2022-09-07T03:20:53.665Z,88.69
2022-09-07T03:22:28.645Z,88.46
2022-09-07T03:23:31.517Z,88.48
2022-09-07T03:24:37.954Z,88.58
2022-09-07T03:26:12.759Z,88.74
2022-09-07T03:27:15.683Z,88.80
2022-09-07T03:28:18.559Z,88.71
2022-09-07T03:29:54.006Z,88.58
2022-09-07T03:30:57.239Z,88.56
2022-09-07T03:32:00.754Z,88.39
2022-09-07T03:33:35.733Z,88.15
2022-09-07T03:34:38.884Z,87.87
2022-09-07T03:35:41.876Z,87.91
2022-09-07T03:37:16.788Z,88.17
2022-09-07T03:38:19.928Z,88.34
2022-09-07T03:39:23.176Z,88.40
2022-09-07T03:40:58.826Z,88.21
2022-09-07T03:42:01.699Z,88.09
2022-09-07T03:43:04.811Z,88.01
2022-09-07T03:44:39.741Z,88.09
2022-09-07T03:45:42.905Z,88.15
2022-09-07T03:46:46.175Z,88.02
2022-09-07T03:48:20.807Z,87.98
2022-09-07T03:49:24.562Z,87.96
2022-09-07T03:50:27.642Z,87.88
2022-09-07T03:52:02.792Z,87.84
2022-09-07T03:53:05.689Z,87.77
2022-09-07T03:54:08.652Z,87.99
2022-09-07T03:55:43.694Z,88.00
2022-09-07T03:56:46.713Z,88.46
2022-09-07T03:57:49.643Z,88.45
2022-09-07T03:59:24.669Z,88.38
2022-09-07T04:00:17.747Z,88.49
2022-09-07T04:01:21.090Z,88.52
2022-09-07T04:02:24.664Z,88.60
2022-09-07T04:04:04.416Z,88.80
2022-09-07T04:05:46.211Z,88.71
2022-09-07T04:06:49.354Z,88.56
2022-09-07T04:07:52.283Z,88.68
2022-09-07T04:09:27.415Z,88.70
2022-09-07T04:10:30.680Z,88.71
2022-09-07T04:11:33.557Z,88.76
2022-09-07T04:13:08.602Z,88.81
2022-09-07T04:14:11.502Z,88.80
2022-09-07T04:15:14.401Z,88.83
2022-09-07T04:16:49.579Z,88.81
2022-09-07T04:17:53.115Z,88.81
2022-09-07T04:18:56.244Z,88.85
2022-09-07T04:20:30.970Z,88.82
2022-09-07T04:21:34.325Z,88.85
2022-09-07T04:22:37.536Z,88.88
2022-09-07T04:24:17.553Z,89.01
2022-09-07T04:25:20.503Z,89.13
2022-09-07T04:26:23.385Z,89.05
2022-09-07T04:27:58.254Z,89.15
2022-09-07T04:29:01.375Z,89.18
2022-09-07T04:30:04.458Z,89.27
2022-09-07T04:31:39.849Z,89.32
2022-09-07T04:32:42.939Z,89.36
2022-09-07T04:33:45.932Z,89.36
2022-09-07T04:35:20.784Z,89.43
2022-09-07T04:36:23.891Z,89.55
2022-09-07T04:37:26.996Z,89.72
2022-09-07T04:39:01.758Z,89.83
2022-09-07T04:40:05.064Z,89.95
2022-09-07T04:41:08.187Z,90.20
2022-09-07T04:42:43.056Z,90.25
2022-09-07T04:43:46.065Z,90.28
2022-09-07T04:44:48.982Z,90.36
2022-09-07T04:46:24.305Z,90.36
2022-09-07T04:47:27.511Z,90.55
2022-09-07T04:48:30.613Z,90.59
2022-09-07T04:50:05.476Z,90.74
2022-09-07T04:51:11.676Z,90.82
2022-09-07T04:52:14.587Z,90.98
2022-09-07T04:53:49.823Z,90.96
2022-09-07T04:54:52.693Z,91.01
2022-09-07T04:55:55.914Z,91.08
2022-09-07T04:57:35.263Z,91.16
2022-09-07T04:58:38.265Z,91.25
2022-09-07T04:59:41.300Z,91.14
2022-09-07T05:00:18.052Z,91.19
2022-09-07T05:01:21.307Z,91.25
2022-09-07T05:02:24.960Z,91.28
2022-09-07T05:04:00.529Z,91.18
2022-09-07T05:05:08.514Z,91.23
2022-09-07T05:06:11.531Z,91.20
2022-09-07T05:07:46.682Z,91.22
2022-09-07T05:08:49.673Z,91.31
2022-09-07T05:09:52.550Z,91.53
2022-09-07T05:11:34.206Z,91.53
2022-09-07T05:12:37.293Z,91.77
2022-09-07T05:13:40.406Z,91.78
2022-09-07T05:15:15.167Z,92.02
2022-09-07T05:16:18.191Z,91.97
2022-09-07T05:17:21.609Z,91.99
2022-09-07T05:18:56.455Z,92.01
2022-09-07T05:19:59.511Z,91.99
2022-09-07T05:21:06.474Z,92.02
2022-09-07T05:22:41.458Z,91.92
2022-09-07T05:23:44.451Z,91.83
2022-09-07T05:24:47.357Z,91.86
2022-09-07T05:26:22.203Z,91.90
2022-09-07T05:27:25.257Z,91.88
2022-09-07T05:28:28.005Z,92.03
2022-09-07T05:31:54.619Z,92.18
2022-09-07T05:32:57.549Z,92.17
2022-09-07T05:34:31.317Z,92.24
2022-09-07T05:36:10.411Z,92.14
2022-09-07T05:37:13.420Z,92.10
2022-09-07T05:38:16.614Z,92.15
2022-09-07T05:39:51.608Z,92.24
2022-09-07T05:40:55.281Z,92.21
2022-09-07T05:41:58.285Z,92.24
2022-09-07T05:43:33.335Z,92.26
2022-09-07T05:45:38.406Z,92.39
2022-09-07T05:46:41.863Z,92.46
2022-09-07T05:48:16.507Z,92.57
2022-09-07T05:49:19.646Z,92.58
2022-09-07T05:50:22.635Z,92.58
2022-09-07T05:51:57.345Z,92.57
2022-09-07T05:53:00.214Z,92.48
2022-09-07T05:54:03.176Z,92.38
2022-09-07T05:56:12.850Z,92.65
2022-09-07T05:57:15.799Z,92.55
2022-09-07T05:58:18.860Z,92.49
2022-09-07T05:59:54.326Z,92.46
2022-09-07T06:00:17.327Z,92.50
2022-09-07T06:01:20.431Z,92.51
2022-09-07T06:02:23.951Z,92.54
2022-09-07T06:04:04.555Z,92.60
2022-09-07T06:05:07.572Z,92.55
2022-09-07T06:06:10.920Z,92.51
2022-09-07T06:08:12.157Z,92.60
2022-09-07T06:09:15.214Z,92.57
2022-09-07T06:11:26.599Z,92.47
2022-09-07T06:13:01.292Z,92.38
2022-09-07T06:14:04.244Z,92.41
2022-09-07T06:15:07.349Z,92.49
2022-09-07T06:16:42.321Z,92.43
2022-09-07T06:17:45.523Z,92.40
2022-09-07T06:18:48.264Z,92.39
2022-09-07T06:20:22.811Z,92.52
2022-09-07T06:21:25.819Z,92.58
2022-09-07T06:22:31.019Z,92.59
2022-09-07T06:24:06.199Z,92.64
2022-09-07T06:25:09.054Z,92.56
2022-09-07T06:26:12.099Z,92.59
2022-09-07T06:27:47.000Z,92.29
2022-09-07T06:28:57.750Z,92.20
2022-09-07T06:30:01.041Z,92.25
2022-09-07T06:33:43.503Z,92.50
2022-09-07T06:34:46.435Z,92.51
2022-09-07T06:36:21.320Z,92.66
2022-09-07T06:37:24.307Z,92.61
2022-09-07T06:38:31.653Z,92.61
2022-09-07T06:40:06.980Z,92.55
2022-09-07T06:42:00.770Z,92.47
2022-09-07T06:43:03.897Z,92.63
2022-09-07T06:44:38.405Z,92.52
2022-09-07T06:45:41.474Z,92.18
2022-09-07T06:47:45.792Z,92.20
2022-09-07T06:49:25.185Z,92.38
2022-09-07T06:50:27.965Z,91.90
2022-09-07T06:51:31.060Z,91.69
2022-09-07T06:53:37.564Z,91.75
2022-09-07T06:55:42.540Z,91.98
2022-09-07T06:56:45.373Z,92.06
2022-09-07T06:58:20.237Z,92.08
2022-09-07T06:59:28.424Z,92.29
2022-09-07T07:00:17.943Z,92.03
2022-09-07T07:01:21.629Z,91.69
2022-09-07T07:02:24.555Z,91.53
2022-09-07T07:03:59.320Z,91.61
2022-09-07T07:05:02.260Z,91.73
2022-09-07T07:06:05.133Z,91.94
2022-09-07T07:07:40.280Z,92.23
2022-09-07T07:08:43.092Z,92.23
2022-09-07T07:09:46.128Z,92.17
2022-09-07T07:11:20.770Z,91.94
2022-09-07T07:13:27.370Z,92.03
2022-09-07T07:15:02.100Z,92.04
2022-09-07T07:16:05.123Z,92.12
2022-09-07T07:17:08.705Z,91.97
2022-09-07T07:19:06.999Z,91.70
2022-09-07T07:20:10.053Z,91.29
2022-09-07T07:21:12.890Z,91.13
2022-09-07T07:23:59.160Z,90.92
2022-09-07T07:25:05.607Z,91.34
2022-09-07T07:26:08.439Z,91.22
2022-09-07T07:27:43.467Z,91.37
2022-09-07T07:29:44.814Z,90.93
2022-09-07T07:30:47.861Z,90.71
2022-09-07T07:32:28.681Z,90.56
2022-09-07T07:33:32.093Z,89.93
2022-09-07T07:34:47.405Z,89.90
2022-09-07T07:36:22.648Z,89.84
2022-09-07T07:37:28.412Z,89.43
2022-09-07T07:39:02.501Z,89.63
2022-09-07T07:42:51.171Z,89.12
2022-09-07T07:43:54.066Z,89.15
2022-09-07T07:45:59.196Z,89.25
2022-09-07T07:47:37.162Z,89.45
2022-09-07T07:48:40.288Z,89.44
2022-09-07T07:49:43.354Z,89.63
2022-09-07T07:54:37.239Z,89.73
2022-09-07T07:55:50.311Z,89.77
2022-09-07T07:57:25.311Z,89.66
2022-09-07T07:58:28.301Z,90.32
2022-09-07T07:59:31.640Z,89.66
2022-09-07T08:00:27.438Z,89.66
2022-09-07T08:01:53.001Z,89.20
2022-09-07T08:02:57.977Z,88.71
2022-09-07T08:04:32.680Z,88.48
2022-09-07T08:05:35.854Z,88.50
2022-09-07T08:06:38.796Z,88.68
2022-09-07T08:08:21.019Z,88.66
2022-09-07T08:09:24.164Z,88.58
2022-09-07T08:10:27.190Z,88.87
2022-09-07T08:12:01.834Z,88.12
2022-09-07T08:13:10.082Z,87.60
2022-09-07T08:14:13.525Z,88.35
2022-09-07T08:15:48.507Z,87.84
2022-09-07T08:16:52.082Z,88.05
2022-09-07T08:17:54.955Z,87.20
2022-09-07T08:19:33.232Z,85.98
2022-09-07T08:20:36.065Z,85.53
2022-09-07T08:21:39.228Z,84.80
2022-09-07T08:23:20.309Z,84.85
2022-09-07T08:24:23.351Z,85.57
2022-09-07T08:25:26.308Z,85.51
2022-09-07T08:27:01.239Z,85.80
2022-09-07T08:28:04.421Z,85.86
2022-09-07T08:29:07.413Z,85.71
2022-09-07T08:30:47.193Z,85.85
2022-09-07T08:31:50.472Z,86.00
2022-09-07T08:32:53.790Z,85.66
2022-09-07T08:34:28.706Z,85.54
2022-09-07T08:35:31.849Z,85.57
2022-09-07T08:36:34.848Z,86.10
2022-09-07T08:38:09.567Z,86.19
2022-09-07T08:39:18.508Z,85.91
2022-09-07T08:40:21.920Z,85.62
2022-09-07T08:41:56.805Z,85.57
2022-09-07T08:42:59.745Z,86.19
2022-09-07T08:44:03.019Z,86.39
2022-09-07T08:45:38.383Z,84.74
2022-09-07T08:46:41.347Z,85.07
2022-09-07T08:47:45.163Z,84.62
2022-09-07T08:49:20.205Z,84.37
2022-09-07T08:50:23.194Z,84.47
2022-09-07T08:51:30.051Z,84.72
2022-09-07T08:53:04.843Z,85.31
2022-09-07T08:54:07.676Z,84.35
2022-09-07T08:55:10.685Z,84.52
2022-09-07T08:57:20.635Z,83.73
2022-09-07T08:58:53.143Z,82.86
2022-09-07T08:59:56.240Z,81.66
2022-09-07T09:00:17.614Z,81.66
2022-09-07T09:01:37.530Z,81.54
2022-09-07T09:06:17.748Z,80.63
2022-09-07T09:07:53.989Z,79.26
2022-09-07T09:08:56.813Z,79.33
2022-09-07T09:09:59.816Z,81.03
2022-09-07T09:11:34.897Z,77.74
2022-09-07T09:12:43.291Z,78.20
2022-09-07T09:13:46.271Z,76.51
2022-09-07T09:15:22.155Z,76.53
2022-09-07T09:16:25.446Z,76.94
2022-09-07T09:17:29.146Z,75.75
2022-09-07T09:19:06.570Z,76.81
2022-09-07T09:20:09.520Z,76.38
2022-09-07T09:21:12.543Z,76.42
2022-09-07T09:22:47.567Z,75.93
2022-09-07T09:23:50.499Z,75.88
2022-09-07T09:24:53.404Z,74.12
2022-09-07T09:26:28.290Z,75.76
2022-09-07T09:27:31.601Z,75.34
2022-09-07T09:28:38.560Z,75.25
2022-09-07T09:30:14.237Z,76.16
2022-09-07T09:31:17.526Z,76.05
2022-09-07T09:32:21.191Z,75.05
2022-09-07T09:33:56.042Z,76.75
2022-09-07T09:35:00.818Z,76.94
2022-09-07T09:36:03.869Z,77.72
2022-09-07T09:37:38.851Z,78.55
2022-09-07T09:38:41.815Z,78.80
2022-09-07T09:39:45.022Z,79.23
2022-09-07T09:41:27.194Z,76.89
2022-09-07T09:42:30.286Z,77.78
2022-09-07T09:43:33.275Z,77.18
2022-09-07T09:45:08.002Z,76.87
2022-09-07T09:46:18.985Z,76.81
2022-09-07T09:47:38.211Z,77.67
2022-09-07T09:49:13.950Z,76.30
2022-09-07T09:52:29.237Z,75.61
2022-09-07T09:53:43.867Z,74.88
2022-09-07T09:55:40.931Z,75.45
2022-09-07T09:56:43.927Z,74.58
2022-09-07T09:59:04.761Z,74.07
2022-09-07T10:00:29.910Z,74.05
2022-09-07T10:05:10.960Z,72.02
2022-09-07T10:06:45.958Z,72.35
2022-09-07T10:07:48.782Z,73.57
2022-09-07T10:08:51.560Z,73.52
2022-09-07T10:10:30.029Z,73.43
2022-09-07T10:12:11.054Z,73.96
2022-09-07T10:13:14.070Z,73.66
2022-09-07T10:14:48.821Z,72.87
2022-09-07T10:15:51.970Z,72.83
2022-09-07T10:16:55.888Z,72.28
2022-09-07T10:18:31.660Z,72.33
2022-09-07T10:19:34.781Z,70.80
2022-09-07T10:20:39.018Z,70.19
2022-09-07T10:22:13.778Z,70.37
2022-09-07T10:23:17.061Z,71.49
2022-09-07T10:24:20.077Z,71.13
2022-09-07T10:25:55.029Z,70.36
2022-09-07T10:26:58.054Z,70.60
2022-09-07T10:28:01.154Z,70.65
2022-09-07T10:30:00.505Z,69.45
2022-09-07T10:31:04.683Z,69.19
2022-09-07T10:32:12.668Z,69.91
2022-09-07T10:34:25.744Z,70.27
2022-09-07T10:35:29.116Z,70.05
2022-09-07T10:36:32.138Z,68.26
2022-09-07T10:38:07.017Z,67.48
2022-09-07T10:39:11.406Z,67.82
2022-09-07T10:40:16.266Z,67.84
2022-09-07T10:41:51.454Z,67.53
2022-09-07T10:43:24.915Z,68.29
2022-09-07T10:44:27.932Z,68.19
2022-09-07T10:46:02.989Z,68.97
2022-09-07T10:47:37.654Z,67.19
2022-09-07T10:48:40.621Z,67.65
2022-09-07T10:50:29.729Z,67.33
2022-09-07T10:51:32.850Z,65.58
2022-09-07T10:52:36.339Z,65.91
2022-09-07T10:55:03.490Z,66.82
2022-09-07T10:56:06.429Z,67.04
2022-09-07T10:57:09.343Z,67.90
2022-09-07T10:59:08.820Z,66.85
2022-09-07T11:00:17.955Z,67.23
2022-09-07T11:01:20.921Z,66.50
2022-09-07T11:02:24.453Z,67.18
2022-09-07T11:04:31.462Z,67.79
2022-09-07T11:05:42.775Z,68.03
2022-09-07T11:06:45.653Z,67.78
2022-09-07T11:08:26.217Z,66.56
2022-09-07T11:10:08.285Z,66.63
2022-09-07T11:11:11.572Z,66.58
2022-09-07T11:13:25.314Z,64.56
2022-09-07T11:15:00.829Z,65.68
2022-09-07T11:16:03.988Z,66.04
2022-09-07T11:18:20.451Z,66.78
2022-09-07T11:19:43.501Z,66.67
2022-09-07T11:20:46.388Z,66.28
2022-09-07T11:22:48.766Z,65.28
2022-09-07T11:23:51.895Z,66.61
2022-09-07T11:25:35.019Z,66.15
2022-09-07T11:27:10.393Z,67.01
2022-09-07T11:28:13.462Z,66.26
2022-09-07T11:29:36.029Z,66.56
2022-09-07T11:31:10.866Z,65.86
2022-09-07T11:32:14.389Z,64.28
2022-09-07T11:33:17.378Z,63.70
2022-09-07T11:35:17.004Z,64.76
2022-09-07T11:36:19.997Z,64.54
2022-09-07T11:37:23.131Z,62.69
2022-09-07T11:38:57.965Z,63.77
2022-09-07T11:40:01.143Z,63.91
2022-09-07T11:41:04.570Z,63.96
2022-09-07T11:42:50.227Z,64.15
2022-09-07T11:43:57.417Z,63.27
2022-09-07T11:45:00.407Z,63.11
2022-09-07T11:46:35.849Z,62.99
2022-09-07T11:47:39.322Z,62.56
2022-09-07T11:48:43.057Z,62.67
2022-09-07T11:50:18.103Z,64.23
2022-09-07T11:51:21.668Z,64.02
2022-09-07T11:52:24.644Z,63.74
2022-09-07T11:54:06.204Z,61.80
2022-09-07T11:55:09.329Z,60.71
2022-09-07T11:56:12.304Z,60.75
2022-09-07T11:57:53.571Z,61.56
2022-09-07T11:58:58.524Z,61.59
2022-09-07T12:00:17.483Z,61.28
2022-09-07T12:01:20.495Z,61.68
2022-09-07T12:02:42.104Z,61.35
2022-09-07T12:04:35.766Z,60.87
2022-09-07T12:05:42.924Z,60.93
2022-09-07T12:06:46.078Z,62.80
2022-09-07T12:08:21.391Z,61.76
2022-09-07T12:09:24.571Z,61.28
2022-09-07T12:10:27.738Z,61.53
2022-09-07T12:12:08.668Z,62.52
2022-09-07T12:13:11.923Z,62.34
2022-09-07T12:14:15.083Z,61.94
2022-09-07T12:15:50.325Z,60.47
2022-09-07T12:16:53.762Z,60.26
2022-09-07T12:17:56.734Z,61.83
2022-09-07T12:19:31.700Z,61.90
2022-09-07T12:20:34.735Z,61.58
2022-09-07T12:21:37.829Z,61.74
2022-09-07T12:23:12.867Z,61.47
2022-09-07T12:24:15.853Z,62.20
2022-09-07T12:25:19.098Z,63.09
2022-09-07T12:26:54.518Z,63.29
2022-09-07T12:27:57.447Z,63.40
2022-09-07T12:29:05.938Z,62.62
2022-09-07T12:30:41.015Z,61.62
2022-09-07T12:31:57.621Z,61.29
2022-09-07T12:33:51.902Z,62.06
2022-09-07T12:35:26.726Z,62.24
2022-09-07T12:36:29.623Z,62.61
2022-09-07T12:37:32.789Z,62.22
2022-09-07T12:39:08.320Z,61.03
2022-09-07T12:40:11.691Z,61.46
2022-09-07T12:41:14.896Z,61.72
2022-09-07T12:43:23.158Z,61.97
2022-09-07T12:44:29.173Z,62.41
2022-09-07T12:45:32.498Z,61.96
2022-09-07T12:47:08.152Z,61.78
2022-09-07T12:48:11.449Z,62.52
2022-09-07T12:49:14.774Z,62.52
2022-09-07T12:50:51.035Z,62.46
2022-09-07T12:52:21.496Z,62.61
2022-09-07T12:53:24.779Z,62.78
2022-09-07T12:55:32.757Z,63.84
2022-09-07T12:57:36.091Z,63.40
2022-09-07T12:58:39.328Z,63.74
2022-09-07T13:00:18.175Z,62.92
2022-09-07T13:01:21.712Z,63.21
2022-09-07T13:02:25.896Z,62.93
2022-09-07T13:04:41.847Z,65.33
2022-09-07T13:05:44.917Z,63.13
2022-09-07T13:07:09.109Z,63.20
2022-09-07T13:08:55.604Z,63.36
2022-09-07T13:09:58.880Z,63.42
2022-09-07T13:11:02.087Z,63.28
2022-09-07T13:12:59.640Z,62.21
2022-09-07T13:14:34.473Z,62.13
2022-09-07T13:15:41.271Z,62.20
2022-09-07T13:18:02.546Z,62.61
2022-09-07T13:19:07.686Z,62.50
2022-09-07T13:20:10.955Z,63.47
2022-09-07T13:21:53.008Z,62.66
2022-09-07T13:22:56.971Z,62.78
2022-09-07T13:24:00.519Z,62.85
2022-09-07T13:26:19.247Z,63.10
2022-09-07T13:27:22.697Z,62.87
2022-09-07T13:28:25.720Z,60.76
2022-09-07T13:30:00.983Z,59.49
2022-09-07T13:31:04.706Z,60.00
2022-09-07T13:32:08.567Z,61.06
2022-09-07T13:34:26.441Z,58.45
2022-09-07T13:35:29.661Z,56.85
2022-09-07T13:36:32.959Z,57.85
2022-09-07T13:38:08.187Z,58.10
2022-09-07T13:39:11.590Z,58.00
2022-09-07T13:40:15.300Z,57.19
2022-09-07T13:41:50.065Z,56.83
2022-09-07T13:42:53.303Z,57.09
2022-09-07T13:43:56.647Z,58.75
2022-09-07T13:45:38.651Z,57.52
2022-09-07T13:46:42.382Z,58.22
2022-09-07T13:47:45.452Z,57.22
2022-09-07T13:49:20.769Z,56.71
2022-09-07T13:50:24.028Z,57.86
2022-09-07T13:51:27.377Z,57.75
2022-09-07T13:53:02.587Z,58.97
2022-09-07T13:54:05.738Z,57.83
2022-09-07T13:55:08.942Z,57.20
2022-09-07T13:56:49.828Z,56.52
2022-09-07T13:57:53.348Z,57.16
2022-09-07T13:58:56.635Z,57.03
2022-09-07T14:00:17.855Z,56.71
2022-09-07T14:01:21.249Z,56.18
2022-09-07T14:02:24.732Z,55.56
2022-09-07T14:04:00.310Z,55.30
2022-09-07T14:05:03.487Z,55.38
2022-09-07T14:06:06.653Z,54.93
2022-09-07T14:07:41.910Z,54.26
2022-09-07T14:08:45.670Z,55.27
2022-09-07T14:09:48.752Z,55.00
2022-09-07T14:11:24.104Z,54.13
2022-09-07T14:12:27.635Z,54.91
2022-09-07T14:13:30.817Z,54.48
2022-09-07T14:15:09.087Z,53.26
2022-09-07T14:16:12.522Z,53.09
2022-09-07T14:17:16.116Z,53.15
2022-09-07T14:18:51.327Z,52.99
2022-09-07T14:19:54.586Z,53.66
2022-09-07T14:20:57.813Z,53.45
2022-09-07T14:22:33.526Z,54.37
2022-09-07T14:23:41.471Z,54.12
2022-09-07T14:24:44.798Z,54.31
2022-09-07T14:27:03.325Z,52.98
2022-09-07T14:28:06.992Z,52.36
2022-09-07T14:29:10.126Z,51.58
2022-09-07T14:30:45.408Z,52.09
2022-09-07T14:31:49.337Z,53.14
2022-09-07T14:32:52.611Z,54.24
2022-09-07T14:34:32.852Z,52.39
2022-09-07T14:35:35.961Z,52.92
2022-09-07T14:36:50.913Z,52.92
2022-09-07T14:39:09.967Z,53.89
2022-09-07T14:40:13.834Z,53.83
2022-09-07T14:41:17.537Z,52.65
2022-09-07T14:42:53.948Z,53.48
2022-09-07T14:43:57.233Z,53.76
2022-09-07T14:45:00.466Z,54.58
2022-09-07T14:46:38.946Z,53.98
2022-09-07T14:47:48.609Z,55.10
2022-09-07T14:48:51.947Z,55.14
2022-09-07T14:50:30.934Z,54.28
2022-09-07T14:52:13.171Z,54.76
2022-09-07T14:53:40.907Z,54.58
2022-09-07T14:55:16.183Z,53.11
2022-09-07T14:56:19.280Z,53.90
2022-09-07T14:57:22.488Z,53.94
2022-09-07T14:59:00.148Z,53.07
2022-09-07T15:00:17.575Z,52.74
2022-09-07T15:01:44.667Z,53.96
2022-09-07T15:02:48.282Z,54.38
2022-09-07T15:04:24.020Z,53.78
2022-09-07T15:05:28.298Z,52.89
2022-09-07T15:07:02.579Z,53.36
2022-09-07T15:08:38.734Z,54.13
2022-09-07T15:09:41.747Z,52.52
2022-09-07T15:11:32.806Z,52.03
2022-09-07T15:13:24.315Z,49.50
2022-09-07T15:14:27.821Z,49.89
2022-09-07T15:15:32.616Z,50.99
2022-09-07T15:17:45.117Z,50.59
2022-09-07T15:18:56.441Z,51.32
2022-09-07T15:19:59.627Z,52.41
2022-09-07T15:21:34.773Z,52.01
2022-09-07T15:22:37.786Z,51.64
2022-09-07T15:23:41.090Z,52.73
2022-09-07T15:25:16.928Z,53.13
2022-09-07T15:27:03.716Z,52.91
2022-09-07T15:28:07.079Z,53.60
2022-09-07T15:30:34.283Z,54.19
2022-09-07T15:32:49.499Z,53.73
2022-09-07T15:33:54.761Z,53.90
2022-09-07T15:35:30.099Z,52.79
2022-09-07T15:36:34.439Z,52.86
2022-09-07T15:40:31.409Z,54.22
2022-09-07T15:43:00.744Z,55.16
2022-09-07T15:44:25.028Z,54.75
2022-09-07T15:46:04.212Z,55.02
2022-09-07T15:47:50.925Z,53.56
2022-09-07T15:48:55.248Z,54.31
2022-09-07T15:50:42.043Z,54.87
2022-09-07T15:52:46.281Z,54.62
2022-09-07T15:54:56.670Z,54.25
2022-09-07T15:56:36.864Z,54.53
2022-09-07T15:58:52.395Z,54.50
2022-09-07T15:59:55.426Z,54.61
2022-09-07T16:00:18.283Z,54.61
2022-09-07T16:01:52.169Z,53.98
2022-09-07T16:03:57.696Z,54.59
2022-09-07T16:05:47.570Z,55.47
2022-09-07T16:06:54.733Z,55.37
2022-09-07T16:08:33.089Z,54.61
2022-09-07T16:10:13.744Z,54.72
2022-09-07T16:11:24.308Z,54.48
2022-09-07T16:13:02.423Z,54.59
2022-09-07T16:14:48.753Z,55.14
2022-09-07T16:15:55.332Z,55.08
2022-09-07T16:17:36.521Z,54.94
2022-09-07T16:19:27.811Z,55.08
2022-09-07T16:20:37.939Z,55.41
2022-09-07T16:21:47.027Z,54.80
2022-09-07T16:24:01.046Z,55.08
2022-09-07T16:25:04.227Z,54.82
2022-09-07T16:26:07.275Z,55.60
2022-09-07T16:27:42.331Z,55.60
2022-09-07T16:28:46.481Z,55.69
2022-09-07T16:29:49.761Z,55.88
2022-09-07T16:31:26.581Z,55.79
2022-09-07T16:33:42.923Z,55.77
2022-09-07T16:34:46.251Z,56.45
2022-09-07T16:36:23.405Z,56.21
2022-09-07T16:37:26.429Z,56.40
2022-09-07T16:39:36.477Z,56.40
2022-09-07T16:41:12.735Z,56.75
2022-09-07T16:42:17.770Z,57.09
2022-09-07T16:43:28.886Z,57.50
2022-09-07T16:46:08.491Z,57.13
2022-09-07T16:47:11.477Z,56.13
2022-09-07T16:48:14.701Z,56.67
2022-09-07T16:49:50.672Z,57.05
2022-09-07T16:51:01.679Z,56.63
2022-09-07T16:52:05.679Z,56.93
2022-09-07T16:53:40.835Z,57.19
2022-09-07T16:54:44.926Z,57.51
2022-09-07T16:55:48.688Z,56.95
2022-09-07T16:58:35.197Z,57.04
2022-09-07T16:59:39.782Z,59.09
2022-09-07T17:00:17.472Z,59.09
2022-09-07T17:01:26.226Z,58.80
2022-09-07T17:02:29.642Z,58.45
2022-09-07T17:04:09.785Z,58.56
2022-09-07T17:05:14.367Z,58.29
2022-09-07T17:06:17.638Z,57.81
2022-09-07T17:07:52.458Z,59.63
2022-09-07T17:08:55.785Z,59.10